Time;durP1;ratioP1;P1;durP2;ratioP2;P2;SDS_P1;SDS_P2;PMS_P1;PMS_P2;Temp;Humidity;BMP_temperature;BMP_pressure;BME280_temperature;BME280_humidity;BME280_pressure;Samples;Min_cycle;Max_cycle;Signal;HPM_P1;HPM_P2
2023/12/26 00:01:48;;;;;;;3.60;1.83;;;10.10;99.90;;;;;;5115752;28;20198;-71
2023/12/26 00:04:15;;;;;;;2.13;1.57;;;10.00;99.90;;;;;;5115733;28;20165;-71
2023/12/26 00:06:43;;;;;;;2.40;1.67;;;10.00;99.90;;;;;;5110319;28;20882;-70
2023/12/26 00:09:11;;;;;;;3.83;2.23;;;10.10;99.90;;;;;;5095217;28;20447;-71
2023/12/26 00:11:43;;;;;;;3.50;2.23;;;10.00;99.90;;;;;;5095731;28;20426;-70
2023/12/26 00:14:09;;;;;;;4.43;1.63;;;9.90;99.90;;;;;;5095317;28;20473;-69
2023/12/26 00:16:35;;;;;;;2.10;1.63;;;9.90;99.90;;;;;;5099578;28;20494;-71
2023/12/26 00:19:01;;;;;;;2.93;1.50;;;9.90;99.90;;;;;;5115568;28;20412;-71
2023/12/26 00:21:26;;;;;;;3.67;2.10;;;9.80;99.90;;;;;;5115550;28;20531;-69
2023/12/26 00:23:52;;;;;;;1.67;1.57;;;9.90;99.90;;;;;;5116218;28;20168;-69
2023/12/26 00:26:17;;;;;;;1.80;1.70;;;10.00;99.90;;;;;;5113499;28;20630;-69
2023/12/26 00:28:43;;;;;;;5.00;1.90;;;10.00;99.90;;;;;;5093362;28;20597;-69
2023/12/26 00:31:08;;;;;;;5.87;1.97;;;9.80;99.90;;;;;;5094968;28;20186;-69
2023/12/26 00:33:34;;;;;;;3.00;1.90;;;9.80;99.90;;;;;;5094899;28;20168;-69
2023/12/26 00:35:59;;;;;;;2.10;1.60;;;9.90;99.90;;;;;;5094159;28;20240;-69
2023/12/26 00:38:25;;;;;;;3.50;1.70;;;10.00;99.90;;;;;;5114464;28;20175;-69
2023/12/26 00:40:51;;;;;;;2.90;1.90;;;9.90;99.90;;;;;;5115019;28;20259;-69
2023/12/26 00:43:17;;;;;;;4.13;1.90;;;9.70;99.90;;;;;;5115333;28;20417;-69
2023/12/26 00:45:43;;;;;;;2.40;1.63;;;9.70;99.90;;;;;;5114992;28;20230;-69
2023/12/26 00:48:08;;;;;;;3.33;1.70;;;9.70;99.90;;;;;;5097967;28;20179;-70
2023/12/26 00:50:41;;;;;;;2.30;1.97;;;9.70;99.90;;;;;;5094884;28;20199;-69
2023/12/26 00:53:08;;;;;;;3.40;2.03;;;9.70;99.90;;;;;;5094593;28;20571;-68
2023/12/26 00:55:34;;;;;;;2.80;1.43;;;9.80;99.90;;;;;;5094415;28;20405;-69
2023/12/26 00:57:59;;;;;;;3.47;1.80;;;9.70;99.90;;;;;;5109173;28;20747;-69
2023/12/26 01:00:25;;;;;;;5.00;2.33;;;9.80;99.90;;;;;;5114736;28;20194;-69
2023/12/26 01:02:51;;;;;;;2.67;1.77;;;9.80;99.90;;;;;;5114603;28;20193;-69
2023/12/26 01:05:17;;;;;;;2.17;1.40;;;9.70;99.90;;;;;;5114587;28;20205;-69
2023/12/26 01:07:42;;;;;;;3.00;1.77;;;9.70;99.90;;;;;;5101577;28;20238;-69
2023/12/26 01:10:08;;;;;;;2.87;1.73;;;9.70;99.90;;;;;;5094228;28;20211;-69
2023/12/26 01:12:34;;;;;;;3.07;2.37;;;9.80;99.90;;;;;;5094275;28;20195;-69
2023/12/26 01:14:59;;;;;;;1.87;1.30;;;9.90;99.90;;;;;;5094125;28;20177;-69
2023/12/26 01:17:25;;;;;;;4.67;1.67;;;10.00;99.90;;;;;;5104604;28;20543;-69
2023/12/26 01:19:51;;;;;;;2.53;2.03;;;10.00;99.90;;;;;;5115021;28;20183;-69
2023/12/26 01:22:16;;;;;;;3.50;1.73;;;10.00;99.90;;;;;;5114199;28;20192;-69
2023/12/26 01:24:43;;;;;;;1.97;1.63;;;10.00;99.90;;;;;;5114654;28;20202;-69
2023/12/26 01:27:08;;;;;;;1.93;1.73;;;10.00;99.90;;;;;;5106124;28;20165;-69
2023/12/26 01:29:34;;;;;;;1.60;1.50;;;10.00;99.90;;;;;;5094373;28;20462;-70
2023/12/26 01:31:59;;;;;;;5.40;1.90;;;10.10;99.90;;;;;;5095397;28;20191;-69
2023/12/26 01:34:25;;;;;;;1.60;1.50;;;10.10;99.90;;;;;;5098765;28;20229;-69
2023/12/26 01:36:51;;;;;;;1.90;1.47;;;10.20;99.90;;;;;;5104223;28;20169;-70
2023/12/26 01:39:16;;;;;;;2.23;1.60;;;10.10;99.90;;;;;;5115854;28;20269;-70
2023/12/26 01:41:42;;;;;;;2.10;1.90;;;10.10;99.90;;;;;;5114795;28;20191;-72
2023/12/26 01:44:08;;;;;;;2.17;1.60;;;10.10;99.90;;;;;;5104517;28;20176;-71
2023/12/26 01:46:34;;;;;;;2.93;1.63;;;10.00;99.90;;;;;;5096838;28;20627;-71
2023/12/26 01:49:00;;;;;;;5.13;2.27;;;9.70;99.90;;;;;;5114614;28;20205;-70
2023/12/26 01:51:29;;;;;;;2.37;1.37;;;9.70;99.90;;;;;;5113765;28;20527;-71
2023/12/26 01:53:56;;;;;;;1.87;1.40;;;9.70;99.90;;;;;;5113865;28;20400;-70
2023/12/26 01:56:22;;;;;;;2.30;1.43;;;9.70;99.90;;;;;;5112718;28;20402;-71
2023/12/26 01:58:49;;;;;;;3.60;1.80;;;9.80;99.90;;;;;;5093431;28;20416;-71
2023/12/26 02:01:15;;;;;;;2.13;1.50;;;10.00;99.90;;;;;;5093205;28;20973;-70
2023/12/26 02:03:41;;;;;;;3.00;1.70;;;10.00;99.90;;;;;;5093442;28;20411;-71
2023/12/26 02:06:08;;;;;;;3.23;1.80;;;10.00;99.90;;;;;;5093390;28;20409;-71
2023/12/26 02:08:35;;;;;;;1.57;1.37;;;9.90;99.90;;;;;;5112571;28;20437;-69
2023/12/26 02:11:02;;;;;;;1.87;1.67;;;10.00;99.90;;;;;;5113143;28;20416;-69
2023/12/26 02:13:28;;;;;;;3.13;1.90;;;10.10;99.90;;;;;;5113461;28;20401;-69
2023/12/26 02:15:57;;;;;;;1.87;1.50;;;10.10;99.90;;;;;;5113522;28;20416;-69
2023/12/26 02:18:23;;;;;;;2.77;1.77;;;10.00;99.90;;;;;;5095852;28;20450;-69
2023/12/26 02:20:49;;;;;;;3.53;1.60;;;9.80;99.90;;;;;;5093706;28;20406;-68
2023/12/26 02:23:15;;;;;;;2.33;1.67;;;9.90;99.90;;;;;;5093183;28;20808;-69
2023/12/26 02:25:41;;;;;;;2.13;1.70;;;9.90;99.90;;;;;;5093021;28;20174;-69
2023/12/26 02:28:07;;;;;;;3.77;1.90;;;9.90;99.90;;;;;;5109731;28;20178;-69
2023/12/26 02:30:35;;;;;;;1.70;1.40;;;9.80;99.90;;;;;;5113249;28;20195;-69
2023/12/26 02:33:02;;;;;;;2.30;1.63;;;9.90;99.90;;;;;;5097092;28;20508;-69
2023/12/26 02:35:28;;;;;;;1.90;1.43;;;9.80;99.90;;;;;;5092776;28;20502;-69
2023/12/26 02:37:54;;;;;;;2.03;1.43;;;9.80;99.90;;;;;;5106271;28;20413;-69
2023/12/26 02:40:20;;;;;;;2.17;1.93;;;9.90;99.90;;;;;;5113582;28;20416;-69
2023/12/26 02:42:45;;;;;;;2.53;1.70;;;9.90;99.90;;;;;;5113243;28;20423;-69
2023/12/26 02:45:11;;;;;;;3.03;1.80;;;9.70;99.90;;;;;;5113271;28;20172;-69
2023/12/26 02:47:37;;;;;;;3.50;2.13;;;9.80;99.90;;;;;;5102444;28;20240;-69
2023/12/26 02:50:03;;;;;;;1.80;1.40;;;9.90;99.90;;;;;;5092699;28;20207;-69
2023/12/26 02:52:28;;;;;;;1.43;1.27;;;9.90;99.90;;;;;;5116590;22;20303;-70
2023/12/26 02:54:54;;;;;;;1.77;1.37;;;9.90;99.90;;;;;;5092297;28;20196;-70
2023/12/26 02:57:19;;;;;;;1.97;1.70;;;9.70;99.90;;;;;;5099961;28;20237;-70
2023/12/26 02:59:45;;;;;;;2.40;1.53;;;9.90;99.90;;;;;;5112447;28;20709;-70
2023/12/26 03:02:11;;;;;;;3.30;1.70;;;9.70;99.90;;;;;;5120987;28;20194;-71
2023/12/26 03:04:36;;;;;;;2.00;1.20;;;9.80;99.90;;;;;;5133070;28;20193;-70
2023/12/26 03:07:02;;;;;;;2.47;1.70;;;9.80;99.90;;;;;;5108686;28;20227;-70
2023/12/26 03:09:27;;;;;;;1.73;1.40;;;9.70;99.90;;;;;;5093850;28;20197;-71
2023/12/26 03:11:53;;;;;;;2.03;1.40;;;9.90;99.90;;;;;;5112332;28;20568;-69
2023/12/26 03:14:19;;;;;;;2.43;1.73;;;10.00;99.90;;;;;;5093792;28;20176;-72
2023/12/26 03:16:44;;;;;;;3.07;1.83;;;9.90;99.90;;;;;;5115220;28;20158;-69
2023/12/26 03:19:10;;;;;;;2.80;1.73;;;10.10;99.90;;;;;;5133356;28;20176;-71
2023/12/26 03:21:35;;;;;;;1.60;1.50;;;10.00;99.90;;;;;;5133977;27;20660;-72
2023/12/26 03:24:01;;;;;;;2.40;1.50;;;10.10;99.90;;;;;;5136568;27;20164;-71
2023/12/26 03:26:27;;;;;;;2.03;1.30;;;10.10;99.90;;;;;;5136946;27;20164;-72
2023/12/26 03:28:52;;;;;;;1.27;1.17;;;10.20;99.90;;;;;;5098150;28;20204;-71
2023/12/26 03:31:18;;;;;;;2.47;1.70;;;10.20;99.90;;;;;;5116045;28;20248;-72
2023/12/26 03:33:43;;;;;;;2.83;1.60;;;10.30;99.90;;;;;;5116268;28;20638;-70
2023/12/26 03:36:09;;;;;;;2.90;1.40;;;10.30;99.90;;;;;;5115993;28;20165;-71
2023/12/26 03:38:38;;;;;;;1.57;1.20;;;10.20;99.90;;;;;;5122400;27;20175;-71
2023/12/26 03:41:03;;;;;;;1.70;1.40;;;10.30;99.90;;;;;;5115932;28;20526;-70
2023/12/26 03:43:29;;;;;;;2.50;1.53;;;10.30;99.90;;;;;;5115445;28;20448;-71
2023/12/26 03:45:54;;;;;;;4.50;1.70;;;10.20;99.90;;;;;;5115578;28;20166;-71
2023/12/26 03:48:20;;;;;;;1.77;1.10;;;10.30;99.90;;;;;;5131714;27;20273;-70
2023/12/26 03:50:46;;;;;;;4.80;1.47;;;10.20;99.90;;;;;;5135984;27;20190;-71
2023/12/26 03:53:12;;;;;;;3.50;1.70;;;10.20;99.90;;;;;;5135941;27;20206;-71
2023/12/26 03:55:37;;;;;;;1.93;1.20;;;10.10;99.90;;;;;;5117773;27;20549;-71
2023/12/26 03:58:03;;;;;;;2.17;1.40;;;10.20;99.90;;;;;;5122441;27;20752;-70
2023/12/26 04:00:29;;;;;;;2.50;1.60;;;10.40;99.90;;;;;;5097147;28;20267;-70
2023/12/26 04:02:55;;;;;;;2.73;1.57;;;10.50;99.90;;;;;;5115357;28;20181;-70
2023/12/26 04:05:21;;;;;;;2.30;1.50;;;10.50;99.90;;;;;;5115344;28;20406;-71
2023/12/26 04:07:48;;;;;;;3.83;1.50;;;10.50;99.90;;;;;;5126146;27;20485;-70
2023/12/26 04:10:13;;;;;;;3.63;1.50;;;10.50;99.90;;;;;;5135518;27;20186;-71
2023/12/26 04:12:40;;;;;;;2.73;1.70;;;10.50;99.90;;;;;;5135669;27;20427;-71
2023/12/26 04:15:07;;;;;;;2.33;1.70;;;10.50;99.90;;;;;;5135576;27;20153;-71
2023/12/26 04:17:32;;;;;;;2.77;1.50;;;10.20;99.90;;;;;;5126649;27;20402;-71
2023/12/26 04:19:58;;;;;;;6.67;2.00;;;10.30;99.90;;;;;;5115064;28;20406;-71
2023/12/26 04:22:24;;;;;;;4.93;1.50;;;10.30;99.90;;;;;;5117116;27;20190;-71
2023/12/26 04:24:49;;;;;;;4.00;1.80;;;10.10;99.90;;;;;;5114567;28;20224;-71
2023/12/26 04:27:15;;;;;;;3.67;1.90;;;10.20;99.90;;;;;;5120502;27;20171;-71
2023/12/26 04:29:41;;;;;;;4.40;1.60;;;10.30;99.90;;;;;;5134886;27;20270;-71
2023/12/26 04:32:06;;;;;;;3.53;1.70;;;10.10;99.90;;;;;;5134842;27;20192;-71
2023/12/26 04:34:32;;;;;;;3.37;1.67;;;10.20;99.90;;;;;;5114314;28;20169;-71
2023/12/26 04:36:58;;;;;;;2.90;1.63;;;10.10;99.90;;;;;;5118383;27;20166;-70
2023/12/26 04:39:23;;;;;;;4.90;2.00;;;10.10;99.90;;;;;;5116509;27;20178;-71
2023/12/26 04:41:49;;;;;;;2.77;1.70;;;10.00;99.90;;;;;;5134896;27;20258;-71
2023/12/26 04:44:15;;;;;;;3.40;1.93;;;10.00;99.90;;;;;;5116514;27;20246;-71
2023/12/26 04:46:40;;;;;;;2.80;1.73;;;10.10;99.90;;;;;;5115652;27;20673;-71
2023/12/26 04:49:06;;;;;;;4.17;1.87;;;10.10;99.90;;;;;;5114381;28;20192;-70
2023/12/26 04:51:31;;;;;;;3.57;1.63;;;10.00;99.90;;;;;;5114433;28;20204;-70
2023/12/26 04:53:57;;;;;;;4.47;1.53;;;10.20;99.90;;;;;;5096158;28;20192;-72
2023/12/26 04:56:23;;;;;;;7.60;1.90;;;10.30;99.90;;;;;;5096126;28;20171;-71
2023/12/26 04:58:50;;;;;;;3.40;1.73;;;10.10;99.90;;;;;;5133324;27;20174;-71
2023/12/26 05:01:17;;;;;;;4.03;1.90;;;10.10;99.90;;;;;;5134728;27;20443;-71
2023/12/26 05:03:44;;;;;;;2.33;1.70;;;10.10;99.90;;;;;;5134703;27;20440;-70
2023/12/26 05:06:10;;;;;;;3.60;1.83;;;10.10;99.90;;;;;;5134891;27;20760;-72
2023/12/26 05:08:40;;;;;;;5.27;2.27;;;10.10;99.90;;;;;;5099063;28;20410;-70
2023/12/26 05:11:06;;;;;;;4.20;1.93;;;10.10;99.90;;;;;;5113608;28;20429;-70
2023/12/26 05:13:33;;;;;;;3.50;2.20;;;10.00;99.90;;;;;;5113812;28;20896;-71
2023/12/26 05:16:05;;;;;;;4.93;1.57;;;10.00;99.90;;;;;;5114035;28;20406;-71
2023/12/26 05:18:31;;;;;;;2.80;1.87;;;10.00;99.90;;;;;;5129630;27;20886;-71
2023/12/26 05:20:58;;;;;;;7.80;1.80;;;10.00;99.90;;;;;;5115875;27;20413;-71
2023/12/26 05:23:23;;;;;;;3.20;1.73;;;10.00;99.90;;;;;;5134152;27;20519;-71
2023/12/26 05:25:49;;;;;;;4.77;1.87;;;10.10;99.90;;;;;;5134544;27;20483;-71
2023/12/26 05:28:14;;;;;;;3.77;2.20;;;10.10;99.90;;;;;;5120360;27;20171;-71
2023/12/26 05:30:40;;;;;;;5.43;1.97;;;10.10;99.90;;;;;;5095114;28;20278;-71
2023/12/26 05:33:06;;;;;;;2.30;1.43;;;10.00;99.90;;;;;;5113839;28;20631;-70
2023/12/26 05:35:31;;;;;;;4.40;2.03;;;10.00;99.90;;;;;;5113440;28;20205;-71
2023/12/26 05:37:57;;;;;;;3.87;2.03;;;10.10;99.90;;;;;;5124396;27;20182;-71
2023/12/26 05:40:22;;;;;;;4.33;1.83;;;10.10;99.90;;;;;;5134093;27;20171;-70
2023/12/26 05:42:48;;;;;;;3.77;1.73;;;10.10;99.90;;;;;;5100731;28;20272;-71
2023/12/26 05:45:14;;;;;;;3.70;2.00;;;10.10;99.90;;;;;;5112857;28;20218;-71
2023/12/26 05:47:39;;;;;;;3.17;1.90;;;10.10;99.90;;;;;;5121592;27;20218;-71
2023/12/26 05:50:06;;;;;;;2.97;2.17;;;10.20;99.90;;;;;;5134066;27;20633;-71
2023/12/26 05:52:31;;;;;;;6.53;2.47;;;10.20;99.90;;;;;;5115936;27;20237;-71
2023/12/26 05:54:57;;;;;;;4.83;1.83;;;10.10;99.90;;;;;;5133993;27;20394;-70
2023/12/26 05:57:23;;;;;;;5.60;2.10;;;10.10;99.90;;;;;;5127586;27;20168;-71
2023/12/26 05:59:49;;;;;;;4.20;1.67;;;10.00;99.90;;;;;;5113046;28;20160;-71
2023/12/26 06:02:15;;;;;;;4.50;2.10;;;10.00;99.90;;;;;;5113346;28;20587;-70
2023/12/26 06:04:40;;;;;;;3.27;2.00;;;9.90;99.90;;;;;;5113172;28;20961;-71
2023/12/26 06:07:07;;;;;;;2.73;1.70;;;9.90;99.90;;;;;;5116683;27;20748;-71
2023/12/26 06:09:34;;;;;;;6.33;2.00;;;10.00;99.90;;;;;;5133690;27;20190;-71
2023/12/26 06:11:59;;;;;;;5.10;1.97;;;10.00;99.90;;;;;;5133631;27;20420;-71
2023/12/26 06:14:25;;;;;;;3.53;2.20;;;10.00;99.90;;;;;;5130414;28;20390;-70
2023/12/26 06:16:51;;;;;;;3.40;1.80;;;10.00;99.90;;;;;;5133257;28;20160;-71
2023/12/26 06:19:16;;;;;;;3.20;1.87;;;10.00;99.90;;;;;;5113503;28;20250;-71
2023/12/26 06:21:42;;;;;;;5.43;2.27;;;10.00;99.90;;;;;;5113602;28;20533;-71
2023/12/26 06:24:09;;;;;;;5.17;1.87;;;10.00;99.90;;;;;;5113049;28;20255;-71
2023/12/26 06:26:34;;;;;;;3.43;1.93;;;10.00;99.90;;;;;;5113565;28;20161;-71
2023/12/26 06:29:00;;;;;;;2.87;2.17;;;10.10;99.90;;;;;;5113518;28;20442;-71
2023/12/26 06:31:26;;;;;;;3.33;1.80;;;10.10;99.90;;;;;;5133363;27;20173;-71
2023/12/26 06:33:51;;;;;;;4.73;2.07;;;10.10;99.90;;;;;;5114531;28;20224;-71
2023/12/26 06:36:17;;;;;;;3.33;2.00;;;10.00;99.90;;;;;;5112813;28;20165;-70
2023/12/26 06:38:43;;;;;;;5.30;2.10;;;9.90;99.90;;;;;;5110858;28;20573;-70
2023/12/26 06:41:10;;;;;;;6.10;2.50;;;9.80;99.90;;;;;;5133234;28;20241;-70
2023/12/26 06:43:36;;;;;;;3.10;2.00;;;9.90;99.90;;;;;;5133105;28;20402;-71
2023/12/26 06:46:03;;;;;;;3.67;1.97;;;10.00;99.90;;;;;;5133089;28;20396;-71
2023/12/26 06:48:29;;;;;;;3.23;1.93;;;10.10;99.90;;;;;;5118330;28;20455;-71
2023/12/26 06:50:55;;;;;;;4.60;2.20;;;10.20;99.90;;;;;;5112401;28;20895;-71
2023/12/26 06:53:20;;;;;;;4.33;2.23;;;10.10;99.90;;;;;;5112662;28;20207;-71
2023/12/26 06:55:46;;;;;;;4.73;2.33;;;10.20;99.90;;;;;;5112467;28;20171;-71
2023/12/26 06:58:11;;;;;;;5.60;2.43;;;10.20;99.90;;;;;;5127836;27;20224;-71
2023/12/26 07:00:37;;;;;;;4.63;2.37;;;10.20;99.90;;;;;;5137051;27;20209;-71
2023/12/26 07:03:03;;;;;;;3.73;1.80;;;10.10;99.90;;;;;;5118198;27;20193;-71
2023/12/26 07:05:29;;;;;;;5.17;2.60;;;10.10;99.90;;;;;;5136894;27;20225;-71
2023/12/26 07:07:55;;;;;;;3.93;2.03;;;9.90;99.90;;;;;;5127351;27;20493;-71
2023/12/26 07:10:20;;;;;;;7.77;2.20;;;9.90;99.90;;;;;;5097723;28;20195;-71
2023/12/26 07:12:46;;;;;;;3.80;2.00;;;9.80;99.90;;;;;;5116043;28;20194;-70
2023/12/26 07:15:12;;;;;;;4.43;2.30;;;9.90;99.90;;;;;;5116027;28;20175;-70
2023/12/26 07:17:37;;;;;;;2.80;1.83;;;9.90;99.90;;;;;;5122656;27;20176;-70
2023/12/26 07:20:03;;;;;;;5.13;2.10;;;10.00;99.90;;;;;;5118099;27;20233;-70
2023/12/26 07:22:29;;;;;;;4.10;2.10;;;10.00;99.90;;;;;;5136421;27;20275;-69
2023/12/26 07:24:54;;;;;;;7.13;2.80;;;10.00;99.90;;;;;;5117981;27;20172;-71
2023/12/26 07:27:20;;;;;;;4.70;1.80;;;10.20;99.90;;;;;;5132286;27;20175;-70
2023/12/26 07:29:46;;;;;;;3.13;2.10;;;10.00;99.90;;;;;;5115771;28;20198;-70
2023/12/26 07:32:11;;;;;;;6.47;2.53;;;10.00;99.90;;;;;;5115861;28;20569;-71
2023/12/26 07:34:40;;;;;;;6.57;2.33;;;10.10;99.90;;;;;;5117637;27;20171;-70
2023/12/26 07:37:07;;;;;;;5.67;1.90;;;10.00;99.90;;;;;;5134436;27;20196;-70
2023/12/26 07:39:33;;;;;;;6.60;2.27;;;10.10;99.90;;;;;;5115641;28;20416;-70
2023/12/26 07:42:00;;;;;;;5.00;2.07;;;10.00;99.90;;;;;;5115521;28;20771;-70
2023/12/26 07:44:26;;;;;;;5.07;2.07;;;10.20;99.90;;;;;;5097428;28;20192;-70
2023/12/26 07:46:52;;;;;;;9.10;2.03;;;10.40;99.90;;;;;;5116421;28;20416;-70
2023/12/26 07:49:17;;;;;;;4.30;1.77;;;10.30;99.90;;;;;;5117739;27;20453;-70
2023/12/26 07:51:44;;;;;;;6.47;2.63;;;10.30;99.90;;;;;;5135899;27;20198;-70
2023/12/26 07:54:10;;;;;;;2.80;2.00;;;10.20;99.90;;;;;;5136041;27;20163;-70
2023/12/26 07:56:36;;;;;;;5.47;2.27;;;10.20;99.90;;;;;;5135939;27;20796;-71
2023/12/26 07:59:01;;;;;;;4.27;2.17;;;10.30;99.90;;;;;;5118173;27;20178;-70
2023/12/26 08:01:27;;;;;;;5.17;2.37;;;10.10;99.90;;;;;;5115699;28;20188;-70
2023/12/26 08:03:53;;;;;;;6.03;2.37;;;10.30;99.90;;;;;;5115547;28;20199;-70
2023/12/26 08:06:20;;;;;;;4.53;1.90;;;10.50;99.90;;;;;;5115221;28;20670;-71
2023/12/26 08:08:45;;;;;;;4.67;2.40;;;10.50;99.90;;;;;;5130305;27;20261;-70
2023/12/26 08:11:11;;;;;;;3.00;1.87;;;10.60;99.90;;;;;;5135673;27;20487;-71
2023/12/26 08:13:36;;;;;;;3.67;2.20;;;10.60;99.90;;;;;;5117250;27;20196;-70
2023/12/26 08:16:04;;;;;;;6.40;2.00;;;10.60;99.90;;;;;;5135575;27;20194;-70
2023/12/26 08:18:29;;;;;;;5.47;2.67;;;10.40;99.90;;;;;;5106462;28;20175;-71
2023/12/26 08:20:55;;;;;;;2.80;2.30;;;10.40;99.90;;;;;;5115256;28;20441;-70
2023/12/26 08:23:21;;;;;;;4.13;2.07;;;10.30;99.90;;;;;;5114502;28;20548;-70
2023/12/26 08:25:47;;;;;;;8.43;2.47;;;10.50;99.90;;;;;;5115322;28;20225;-71
2023/12/26 08:28:13;;;;;;;5.03;2.10;;;10.40;99.90;;;;;;5125877;27;20252;-71
2023/12/26 08:30:39;;;;;;;4.03;2.40;;;10.40;99.90;;;;;;5117274;27;20521;-71
2023/12/26 08:33:04;;;;;;;3.80;2.20;;;10.60;99.90;;;;;;5135511;27;20182;-70
2023/12/26 08:35:31;;;;;;;19.97;11.67;;;10.60;99.90;;;;;;5135057;27;20456;-70
2023/12/26 08:37:57;;;;;;;20.10;11.20;;;10.70;99.90;;;;;;5126957;27;20168;-70
2023/12/26 08:40:23;;;;;;;11.97;7.20;;;10.70;99.90;;;;;;5114850;28;20505;-70
2023/12/26 08:42:48;;;;;;;5.30;2.93;;;10.60;99.90;;;;;;5113983;28;20250;-70
2023/12/26 08:45:14;;;;;;;51.07;32.80;;;10.50;99.90;;;;;;5114330;28;20259;-70
2023/12/26 08:47:40;;;;;;;19.93;10.07;;;10.50;99.90;;;;;;5120010;27;20254;-71
2023/12/26 08:50:06;;;;;;;8.80;4.13;;;10.50;99.90;;;;;;5134562;27;20190;-71
2023/12/26 08:52:32;;;;;;;52.07;28.60;;;10.40;99.90;;;;;;5136142;22;20560;-70
2023/12/26 08:54:58;;;;;;;11.10;6.33;;;10.60;99.90;;;;;;5094400;28;20406;-70
2023/12/26 08:57:23;;;;;;;13.30;7.20;;;10.90;99.90;;;;;;5094277;28;20655;-70
2023/12/26 08:59:49;;;;;;;13.50;8.20;;;10.90;99.90;;;;;;5094488;28;20203;-70
2023/12/26 09:02:14;;;;;;;3.17;2.23;;;11.00;99.90;;;;;;5099968;28;20202;-70
2023/12/26 09:04:40;;;;;;;8.93;4.40;;;10.80;99.90;;;;;;5113463;28;20521;-71
2023/12/26 09:07:05;;;;;;;9.63;6.60;;;10.70;99.90;;;;;;5114636;28;20179;-70
2023/12/26 09:09:31;;;;;;;3.23;2.13;;;10.80;99.90;;;;;;5115242;28;20203;-72
2023/12/26 09:11:59;;;;;;;6.37;2.40;;;11.00;99.90;;;;;;5097233;28;20554;-70
2023/12/26 09:14:24;;;;;;;6.80;3.60;;;11.00;99.90;;;;;;5115372;28;20182;-70
2023/12/26 09:16:50;;;;;;;3.90;2.57;;;11.20;99.90;;;;;;5115567;28;20492;-70
2023/12/26 09:19:16;;;;;;;5.20;2.43;;;11.10;99.90;;;;;;5115219;28;20168;-70
2023/12/26 09:21:42;;;;;;;4.10;2.60;;;11.00;99.90;;;;;;5117271;28;20173;-70
2023/12/26 09:24:08;;;;;;;6.47;2.90;;;10.90;99.90;;;;;;5115696;28;20172;-70
2023/12/26 09:26:33;;;;;;;3.83;1.93;;;10.90;99.90;;;;;;5114366;28;20782;-70
2023/12/26 09:28:59;;;;;;;3.60;1.77;;;10.80;99.90;;;;;;5113942;28;20336;-70
2023/12/26 09:31:25;;;;;;;3.63;1.67;;;10.90;99.90;;;;;;5114864;28;20641;-70
2023/12/26 09:33:50;;;;;;;6.73;2.23;;;11.10;99.90;;;;;;5114642;28;20217;-69
2023/12/26 09:36:16;;;;;;;5.00;2.43;;;11.20;99.90;;;;;;5114166;28;20161;-69
2023/12/26 09:38:42;;;;;;;4.70;2.93;;;11.40;99.90;;;;;;5114155;28;20577;-69
2023/12/26 09:41:08;;;;;;;5.93;2.07;;;11.30;99.90;;;;;;5114242;28;20175;-70
2023/12/26 09:43:36;;;;;;;5.37;2.40;;;11.10;99.90;;;;;;5096495;28;20440;-69
2023/12/26 09:46:03;;;;;;;4.50;2.40;;;11.10;99.90;;;;;;5095478;28;20428;-69
2023/12/26 09:48:33;;;;;;;6.80;3.47;;;11.30;99.90;;;;;;5113701;28;21023;-70
2023/12/26 09:51:03;;;;;;;3.03;2.80;;;11.10;99.90;;;;;;5114133;28;20836;-69
2023/12/26 09:53:33;;;;;;;4.10;1.80;;;11.20;99.90;;;;;;5113977;28;20948;-69
2023/12/26 09:55:59;;;;;;;9.03;6.47;;;11.10;99.90;;;;;;5114066;28;20403;-70
2023/12/26 09:58:25;;;;;;;3.57;1.87;;;11.00;99.90;;;;;;5113697;28;20403;-69
2023/12/26 10:00:52;;;;;;;4.57;1.73;;;11.00;99.90;;;;;;5113535;28;20728;-69
2023/12/26 10:03:18;;;;;;;2.00;1.70;;;11.10;99.90;;;;;;5113549;28;20433;-70
2023/12/26 10:05:44;;;;;;;2.47;1.70;;;11.40;99.90;;;;;;5113793;28;20449;-69
2023/12/26 10:08:10;;;;;;;2.67;1.50;;;11.30;99.90;;;;;;5113510;28;20436;-68
2023/12/26 10:10:36;;;;;;;2.50;1.73;;;11.20;99.90;;;;;;5113607;28;20195;-70
2023/12/26 10:13:02;;;;;;;5.73;1.83;;;11.20;99.90;;;;;;5113490;28;20985;-70
2023/12/26 10:15:27;;;;;;;2.33;1.60;;;11.10;99.90;;;;;;5113375;28;20401;-69
2023/12/26 10:17:55;;;;;;;4.87;1.60;;;11.20;99.90;;;;;;5113247;28;20176;-69
2023/12/26 10:20:20;;;;;;;1.33;1.23;;;11.30;99.90;;;;;;5114000;28;20170;-69
2023/12/26 10:22:46;;;;;;;4.70;1.53;;;11.20;99.90;;;;;;5112883;28;20430;-69
2023/12/26 10:25:12;;;;;;;3.57;1.70;;;11.10;99.90;;;;;;5113987;28;20192;-69
2023/12/26 10:27:39;;;;;;;3.43;1.40;;;11.20;99.90;;;;;;5113661;28;20168;-69
2023/12/26 10:30:05;;;;;;;1.83;1.60;;;11.20;99.90;;;;;;5112253;28;20909;-69
2023/12/26 10:32:31;;;;;;;3.23;1.53;;;11.10;99.90;;;;;;5117612;28;20426;-70
2023/12/26 10:35:14;;;;;;;2.23;1.20;;;11.10;99.90;;;;;;5117808;28;20402;-69
2023/12/26 10:37:40;;;;;;;3.27;1.33;;;11.20;99.90;;;;;;5117584;28;20386;-69
2023/12/26 10:40:07;;;;;;;3.47;1.43;;;11.50;99.90;;;;;;5117392;28;20909;-70
2023/12/26 10:42:36;;;;;;;3.20;1.53;;;11.50;99.90;;;;;;5117170;28;20931;-69
2023/12/26 10:45:06;;;;;;;1.77;1.20;;;11.50;99.90;;;;;;5117421;28;20426;-69
2023/12/26 10:47:33;;;;;;;3.20;1.33;;;11.50;99.90;;;;;;5117380;28;20528;-69
2023/12/26 10:50:00;;;;;;;3.10;1.50;;;11.40;99.90;;;;;;5115822;28;20490;-69
2023/12/26 10:52:27;;;;;;;2.77;1.60;;;11.40;99.90;;;;;;5117130;28;20447;-69
2023/12/26 10:55:00;;;;;;;3.63;1.40;;;11.20;99.90;;;;;;5117643;28;20400;-69
2023/12/26 10:57:29;;;;;;;2.40;1.50;;;11.10;99.90;;;;;;5115760;28;20444;-69
2023/12/26 11:00:47;;;;;;;3.03;1.37;;;11.20;99.90;;;;;;5117064;28;20921;-69
2023/12/26 13:51:56;;;;;;;1.10;0.90;;;11.80;99.90;;;;;;5113625;28;20503;-71
2023/12/26 13:54:22;;;;;;;2.40;1.20;;;11.80;99.90;;;;;;5114442;28;20433;-71
2023/12/26 13:56:47;;;;;;;1.40;0.90;;;11.80;99.90;;;;;;5113829;28;20156;-70
2023/12/26 13:59:13;;;;;;;1.80;1.20;;;11.80;99.90;;;;;;5113541;28;20181;-68
2023/12/26 14:01:38;;;;;;;1.60;1.33;;;11.90;99.90;;;;;;5113373;28;20169;-71
2023/12/26 14:04:04;;;;;;;1.80;1.10;;;12.10;99.90;;;;;;5113502;28;20164;-71
2023/12/26 14:06:30;;;;;;;1.73;0.87;;;12.30;99.90;;;;;;5111793;28;20246;-71
2023/12/26 14:08:56;;;;;;;1.40;1.10;;;12.30;99.90;;;;;;5113655;28;20168;-71
2023/12/26 14:11:22;;;;;;;1.50;0.90;;;12.10;99.90;;;;;;5113730;28;20400;-71
2023/12/26 14:13:47;;;;;;;1.57;0.93;;;12.10;99.90;;;;;;5113359;28;20266;-71
2023/12/26 14:16:13;;;;;;;0.90;0.70;;;11.90;99.90;;;;;;5097738;28;20493;-71
2023/12/26 14:18:39;;;;;;;1.30;0.90;;;12.30;99.90;;;;;;5113058;28;20168;-70
2023/12/26 14:21:05;;;;;;;1.60;1.07;;;12.20;99.90;;;;;;5112124;28;20912;-71
2023/12/26 14:23:31;;;;;;;1.50;0.93;;;12.10;99.90;;;;;;5113289;28;20220;-71
2023/12/26 14:25:57;;;;;;;1.00;0.90;;;12.00;99.90;;;;;;5113351;28;20405;-71
2023/12/26 14:28:23;;;;;;;1.03;0.80;;;12.20;99.90;;;;;;5114004;28;21008;-71
2023/12/26 14:30:49;;;;;;;1.47;1.03;;;12.40;99.90;;;;;;5113347;28;20537;-71
2023/12/26 14:33:19;;;;;;;1.73;1.23;;;12.50;99.90;;;;;;5114004;28;20509;-71
2023/12/26 14:35:49;;;;;;;0.97;0.80;;;12.50;99.90;;;;;;5114243;28;20172;-71
2023/12/26 14:38:15;;;;;;;1.93;0.90;;;12.20;99.90;;;;;;5113320;28;20417;-71
2023/12/26 14:40:42;;;;;;;1.73;0.93;;;12.20;99.90;;;;;;5113428;28;20408;-71
2023/12/26 14:43:07;;;;;;;3.10;1.07;;;12.10;99.90;;;;;;5113375;28;20452;-71
2023/12/26 14:45:33;;;;;;;1.37;0.70;;;11.90;99.90;;;;;;5113366;28;20406;-71
2023/12/26 14:47:58;;;;;;;1.97;1.00;;;11.90;99.90;;;;;;5113262;28;20244;-71
2023/12/26 14:50:24;;;;;;;1.57;0.93;;;11.90;99.90;;;;;;5113219;28;20567;-71
2023/12/26 14:52:50;;;;;;;2.40;1.00;;;11.70;99.90;;;;;;5130767;22;20259;-70
2023/12/26 14:55:15;;;;;;;1.40;1.00;;;11.60;99.90;;;;;;5092249;28;20193;-70
2023/12/26 14:57:41;;;;;;;1.27;1.17;;;11.50;99.90;;;;;;5092380;28;20167;-69
2023/12/26 15:00:06;;;;;;;2.47;0.90;;;11.60;99.90;;;;;;5112631;28;20172;-69
2023/12/26 15:02:32;;;;;;;2.13;1.30;;;11.80;99.90;;;;;;5116163;28;20558;-69
2023/12/26 15:04:58;;;;;;;1.73;1.20;;;11.80;99.90;;;;;;5133314;28;20592;-69
2023/12/26 15:07:24;;;;;;;2.50;1.47;;;11.60;99.90;;;;;;5133225;28;20160;-69
2023/12/26 15:09:49;;;;;;;1.80;1.20;;;11.80;99.90;;;;;;5114871;28;20207;-71
2023/12/26 15:12:15;;;;;;;1.70;1.30;;;11.90;99.90;;;;;;5112349;28;20194;-69
2023/12/26 15:14:41;;;;;;;2.60;1.50;;;11.90;99.90;;;;;;5112623;28;20165;-70
2023/12/26 15:17:06;;;;;;;1.87;1.37;;;11.90;99.90;;;;;;5094356;28;20579;-68
2023/12/26 15:19:32;;;;;;;2.37;1.40;;;11.90;99.90;;;;;;5132027;27;20173;-69
2023/12/26 15:21:58;;;;;;;1.47;1.30;;;11.80;99.90;;;;;;5136901;27;20177;-70
2023/12/26 15:24:24;;;;;;;1.70;1.60;;;11.80;99.90;;;;;;5136374;27;20283;-70
2023/12/26 15:26:50;;;;;;;3.73;2.03;;;11.90;99.90;;;;;;5118714;27;20179;-70
2023/12/26 15:29:15;;;;;;;3.27;2.40;;;11.90;99.90;;;;;;5123409;27;20441;-70
2023/12/26 15:31:42;;;;;;;1.50;1.40;;;11.90;99.90;;;;;;5121388;27;20174;-70